sensor_id;sensor_type;location;lat;lon;timestamp;P1;durP1;ratioP1;P2;durP2;ratioP2
20065;SDS011;10193;48.884;9.182;2023-02-28T00:00:29;2.60;;;1.60;;
20065;SDS011;10193;48.884;9.182;2023-02-28T00:02:56;1.60;;;1.50;;
20065;SDS011;10193;48.884;9.182;2023-02-28T00:05:25;2.53;;;2.10;;
20065;SDS011;10193;48.884;9.182;2023-02-28T00:07:53;2.03;;;1.93;;
20065;SDS011;10193;48.884;9.182;2023-02-28T00:10:21;2.00;;;1.70;;
20065;SDS011;10193;48.884;9.182;2023-02-28T00:12:51;2.40;;;1.83;;
20065;SDS011;10193;48.884;9.182;2023-02-28T00:15:21;2.17;;;1.80;;
20065;SDS011;10193;48.884;9.182;2023-02-28T00:17:48;2.83;;;1.80;;
20065;SDS011;10193;48.884;9.182;2023-02-28T00:20:15;2.20;;;2.00;;
20065;SDS011;10193;48.884;9.182;2023-02-28T00:22:44;1.90;;;1.70;;
20065;SDS011;10193;48.884;9.182;2023-02-28T00:25:12;2.07;;;1.87;;
20065;SDS011;10193;48.884;9.182;2023-02-28T00:27:41;1.87;;;1.77;;
20065;SDS011;10193;48.884;9.182;2023-02-28T00:30:09;1.97;;;1.77;;
20065;SDS011;10193;48.884;9.182;2023-02-28T00:32:38;2.10;;;1.93;;
20065;SDS011;10193;48.884;9.182;2023-02-28T00:35:05;2.17;;;1.80;;
20065;SDS011;10193;48.884;9.182;2023-02-28T00:37:33;2.30;;;2.10;;
20065;SDS011;10193;48.884;9.182;2023-02-28T00:40:01;3.17;;;1.93;;
20065;SDS011;10193;48.884;9.182;2023-02-28T00:42:31;2.60;;;2.10;;
20065;SDS011;10193;48.884;9.182;2023-02-28T00:44:58;2.20;;;2.00;;
20065;SDS011;10193;48.884;9.182;2023-02-28T00:47:25;1.90;;;1.80;;
20065;SDS011;10193;48.884;9.182;2023-02-28T00:49:51;2.40;;;2.20;;
20065;SDS011;10193;48.884;9.182;2023-02-28T00:52:18;1.83;;;1.73;;
20065;SDS011;10193;48.884;9.182;2023-02-28T00:54:45;2.20;;;1.87;;
20065;SDS011;10193;48.884;9.182;2023-02-28T00:57:13;2.07;;;1.97;;
20065;SDS011;10193;48.884;9.182;2023-02-28T00:59:39;2.50;;;2.30;;
20065;SDS011;10193;48.884;9.182;2023-02-28T01:02:06;3.80;;;2.20;;
20065;SDS011;10193;48.884;9.182;2023-02-28T01:04:33;2.50;;;2.30;;
20065;SDS011;10193;48.884;9.182;2023-02-28T01:07:00;2.10;;;1.90;;
20065;SDS011;10193;48.884;9.182;2023-02-28T01:09:26;2.47;;;2.27;;
20065;SDS011;10193;48.884;9.182;2023-02-28T01:11:53;4.13;;;2.80;;
20065;SDS011;10193;48.884;9.182;2023-02-28T01:14:21;3.23;;;2.40;;
20065;SDS011;10193;48.884;9.182;2023-02-28T01:16:48;2.90;;;2.60;;
20065;SDS011;10193;48.884;9.182;2023-02-28T01:19:16;2.40;;;2.20;;
20065;SDS011;10193;48.884;9.182;2023-02-28T01:21:43;2.87;;;2.47;;
20065;SDS011;10193;48.884;9.182;2023-02-28T01:24:09;2.50;;;2.30;;
20065;SDS011;10193;48.884;9.182;2023-02-28T01:26:36;2.83;;;2.40;;
20065;SDS011;10193;48.884;9.182;2023-02-28T01:29:03;2.43;;;2.23;;
20065;SDS011;10193;48.884;9.182;2023-02-28T01:31:31;2.53;;;2.30;;
20065;SDS011;10193;48.884;9.182;2023-02-28T01:33:57;2.40;;;2.20;;
20065;SDS011;10193;48.884;9.182;2023-02-28T01:36:24;2.73;;;2.37;;
20065;SDS011;10193;48.884;9.182;2023-02-28T01:38:52;2.47;;;2.27;;
20065;SDS011;10193;48.884;9.182;2023-02-28T01:41:20;2.53;;;2.23;;
20065;SDS011;10193;48.884;9.182;2023-02-28T01:43:58;2.47;;;2.27;;
20065;SDS011;10193;48.884;9.182;2023-02-28T01:46:33;2.50;;;2.30;;
20065;SDS011;10193;48.884;9.182;2023-02-28T01:49:03;2.23;;;2.07;;
20065;SDS011;10193;48.884;9.182;2023-02-28T01:51:37;2.57;;;2.10;;
20065;SDS011;10193;48.884;9.182;2023-02-28T01:54:11;2.33;;;2.03;;
20065;SDS011;10193;48.884;9.182;2023-02-28T01:56:42;2.40;;;2.17;;
20065;SDS011;10193;48.884;9.182;2023-02-28T01:59:12;2.33;;;2.13;;
20065;SDS011;10193;48.884;9.182;2023-02-28T02:01:46;2.50;;;2.30;;
20065;SDS011;10193;48.884;9.182;2023-02-28T02:04:13;2.43;;;2.20;;
20065;SDS011;10193;48.884;9.182;2023-02-28T02:06:40;2.50;;;2.30;;
20065;SDS011;10193;48.884;9.182;2023-02-28T02:09:10;2.53;;;2.30;;
20065;SDS011;10193;48.884;9.182;2023-02-28T02:11:37;3.63;;;2.40;;
20065;SDS011;10193;48.884;9.182;2023-02-28T02:14:10;2.30;;;2.10;;
20065;SDS011;10193;48.884;9.182;2023-02-28T02:17:00;2.57;;;2.30;;
20065;SDS011;10193;48.884;9.182;2023-02-28T02:22:50;2.23;;;2.03;;
20065;SDS011;10193;48.884;9.182;2023-02-28T02:25:33;2.07;;;1.97;;
20065;SDS011;10193;48.884;9.182;2023-02-28T02:34:37;2.67;;;2.47;;
20065;SDS011;10193;48.884;9.182;2023-02-28T02:37:15;2.50;;;2.30;;
20065;SDS011;10193;48.884;9.182;2023-02-28T02:39:54;2.67;;;2.47;;
20065;SDS011;10193;48.884;9.182;2023-02-28T02:42:29;3.33;;;2.43;;
20065;SDS011;10193;48.884;9.182;2023-02-28T02:45:04;2.53;;;2.33;;
20065;SDS011;10193;48.884;9.182;2023-02-28T02:47:34;3.07;;;2.47;;
20065;SDS011;10193;48.884;9.182;2023-02-28T02:50:04;3.13;;;2.67;;
20065;SDS011;10193;48.884;9.182;2023-02-28T02:52:35;3.07;;;2.57;;
20065;SDS011;10193;48.884;9.182;2023-02-28T02:55:07;2.63;;;2.40;;
20065;SDS011;10193;48.884;9.182;2023-02-28T02:57:38;2.40;;;2.20;;
20065;SDS011;10193;48.884;9.182;2023-02-28T03:00:09;2.80;;;2.53;;
20065;SDS011;10193;48.884;9.182;2023-02-28T03:02:37;3.20;;;2.50;;
20065;SDS011;10193;48.884;9.182;2023-02-28T03:05:08;2.53;;;2.33;;
20065;SDS011;10193;48.884;9.182;2023-02-28T03:07:43;3.20;;;2.30;;
20065;SDS011;10193;48.884;9.182;2023-02-28T03:10:30;3.23;;;2.80;;
20065;SDS011;10193;48.884;9.182;2023-02-28T03:13:02;3.40;;;2.60;;
20065;SDS011;10193;48.884;9.182;2023-02-28T03:15:54;2.53;;;2.33;;
20065;SDS011;10193;48.884;9.182;2023-02-28T03:18:32;3.63;;;3.00;;
20065;SDS011;10193;48.884;9.182;2023-02-28T03:21:10;3.03;;;2.40;;
20065;SDS011;10193;48.884;9.182;2023-02-28T03:23:45;2.80;;;2.57;;
20065;SDS011;10193;48.884;9.182;2023-02-28T03:26:21;3.13;;;2.83;;
20065;SDS011;10193;48.884;9.182;2023-02-28T03:28:53;3.23;;;2.73;;
20065;SDS011;10193;48.884;9.182;2023-02-28T03:31:27;3.53;;;2.70;;
20065;SDS011;10193;48.884;9.182;2023-02-28T03:33:59;3.10;;;2.80;;
20065;SDS011;10193;48.884;9.182;2023-02-28T03:36:32;3.00;;;2.80;;
20065;SDS011;10193;48.884;9.182;2023-02-28T03:39:09;3.30;;;2.70;;
20065;SDS011;10193;48.884;9.182;2023-02-28T03:41:41;2.90;;;2.70;;
20065;SDS011;10193;48.884;9.182;2023-02-28T03:44:13;3.17;;;2.87;;
20065;SDS011;10193;48.884;9.182;2023-02-28T03:46:45;3.13;;;2.83;;
20065;SDS011;10193;48.884;9.182;2023-02-28T03:49:16;4.97;;;2.90;;
20065;SDS011;10193;48.884;9.182;2023-02-28T03:51:48;3.33;;;3.00;;
20065;SDS011;10193;48.884;9.182;2023-02-28T03:54:17;3.50;;;2.70;;
20065;SDS011;10193;48.884;9.182;2023-02-28T03:56:48;3.27;;;2.97;;
20065;SDS011;10193;48.884;9.182;2023-02-28T03:59:20;2.87;;;2.67;;
20065;SDS011;10193;48.884;9.182;2023-02-28T04:01:51;3.10;;;2.80;;
20065;SDS011;10193;48.884;9.182;2023-02-28T04:04:18;2.67;;;2.43;;
20065;SDS011;10193;48.884;9.182;2023-02-28T04:06:45;3.40;;;3.00;;
20065;SDS011;10193;48.884;9.182;2023-02-28T04:09:14;3.80;;;3.30;;
20065;SDS011;10193;48.884;9.182;2023-02-28T04:11:41;3.10;;;2.80;;
20065;SDS011;10193;48.884;9.182;2023-02-28T04:14:10;3.10;;;2.80;;
20065;SDS011;10193;48.884;9.182;2023-02-28T04:16:39;3.90;;;2.80;;
20065;SDS011;10193;48.884;9.182;2023-02-28T04:19:07;3.50;;;3.20;;
20065;SDS011;10193;48.884;9.182;2023-02-28T04:21:36;3.20;;;2.90;;
20065;SDS011;10193;48.884;9.182;2023-02-28T04:24:05;3.20;;;2.87;;
20065;SDS011;10193;48.884;9.182;2023-02-28T04:26:34;3.47;;;3.10;;
20065;SDS011;10193;48.884;9.182;2023-02-28T04:29:02;3.40;;;3.10;;
20065;SDS011;10193;48.884;9.182;2023-02-28T04:31:30;4.73;;;3.50;;
20065;SDS011;10193;48.884;9.182;2023-02-28T04:33:57;3.43;;;3.13;;
20065;SDS011;10193;48.884;9.182;2023-02-28T04:36:24;3.27;;;2.97;;
20065;SDS011;10193;48.884;9.182;2023-02-28T04:38:50;3.13;;;2.83;;
20065;SDS011;10193;48.884;9.182;2023-02-28T04:41:18;3.50;;;3.20;;
20065;SDS011;10193;48.884;9.182;2023-02-28T04:43:46;3.27;;;2.97;;
20065;SDS011;10193;48.884;9.182;2023-02-28T04:46:13;4.13;;;3.70;;
20065;SDS011;10193;48.884;9.182;2023-02-28T04:48:40;3.20;;;2.90;;
20065;SDS011;10193;48.884;9.182;2023-02-28T04:51:09;4.10;;;3.40;;
20065;SDS011;10193;48.884;9.182;2023-02-28T04:53:38;3.47;;;3.07;;
20065;SDS011;10193;48.884;9.182;2023-02-28T04:56:06;3.90;;;3.27;;
20065;SDS011;10193;48.884;9.182;2023-02-28T04:58:36;4.23;;;3.40;;
20065;SDS011;10193;48.884;9.182;2023-02-28T05:01:04;4.03;;;3.10;;
20065;SDS011;10193;48.884;9.182;2023-02-28T05:03:37;3.40;;;3.10;;
20065;SDS011;10193;48.884;9.182;2023-02-28T05:06:05;4.87;;;3.53;;
20065;SDS011;10193;48.884;9.182;2023-02-28T05:08:32;3.77;;;3.13;;
20065;SDS011;10193;48.884;9.182;2023-02-28T05:10:59;3.80;;;3.17;;
20065;SDS011;10193;48.884;9.182;2023-02-28T05:13:26;4.03;;;3.63;;
20065;SDS011;10193;48.884;9.182;2023-02-28T05:15:53;4.00;;;3.53;;
20065;SDS011;10193;48.884;9.182;2023-02-28T05:18:21;3.87;;;3.47;;
20065;SDS011;10193;48.884;9.182;2023-02-28T05:20:48;4.03;;;3.40;;
20065;SDS011;10193;48.884;9.182;2023-02-28T05:23:15;4.27;;;3.33;;
20065;SDS011;10193;48.884;9.182;2023-02-28T05:25:43;3.70;;;3.00;;
20065;SDS011;10193;48.884;9.182;2023-02-28T05:28:09;3.87;;;3.30;;
20065;SDS011;10193;48.884;9.182;2023-02-28T05:30:36;3.90;;;3.50;;
20065;SDS011;10193;48.884;9.182;2023-02-28T05:33:02;3.73;;;3.33;;
20065;SDS011;10193;48.884;9.182;2023-02-28T05:35:30;4.03;;;3.63;;
20065;SDS011;10193;48.884;9.182;2023-02-28T05:37:57;3.87;;;3.47;;
20065;SDS011;10193;48.884;9.182;2023-02-28T05:40:24;4.20;;;3.80;;
20065;SDS011;10193;48.884;9.182;2023-02-28T05:42:51;4.10;;;3.70;;
20065;SDS011;10193;48.884;9.182;2023-02-28T05:45:17;3.47;;;3.17;;
20065;SDS011;10193;48.884;9.182;2023-02-28T05:47:44;4.03;;;3.63;;
20065;SDS011;10193;48.884;9.182;2023-02-28T05:50:11;3.87;;;3.47;;
20065;SDS011;10193;48.884;9.182;2023-02-28T05:52:39;4.20;;;3.67;;
20065;SDS011;10193;48.884;9.182;2023-02-28T05:55:06;3.80;;;3.50;;
20065;SDS011;10193;48.884;9.182;2023-02-28T05:57:33;4.47;;;3.20;;
20065;SDS011;10193;48.884;9.182;2023-02-28T05:59:59;3.67;;;3.37;;
20065;SDS011;10193;48.884;9.182;2023-02-28T06:02:26;4.07;;;3.67;;
20065;SDS011;10193;48.884;9.182;2023-02-28T06:04:53;4.07;;;3.50;;
20065;SDS011;10193;48.884;9.182;2023-02-28T06:07:20;3.87;;;3.47;;
20065;SDS011;10193;48.884;9.182;2023-02-28T06:09:48;4.00;;;3.60;;
20065;SDS011;10193;48.884;9.182;2023-02-28T06:12:15;3.67;;;3.37;;
20065;SDS011;10193;48.884;9.182;2023-02-28T06:14:42;3.93;;;3.47;;
20065;SDS011;10193;48.884;9.182;2023-02-28T06:17:09;4.13;;;3.70;;
20065;SDS011;10193;48.884;9.182;2023-02-28T06:19:36;3.80;;;3.50;;
20065;SDS011;10193;48.884;9.182;2023-02-28T06:22:03;4.10;;;3.70;;
20065;SDS011;10193;48.884;9.182;2023-02-28T06:24:31;3.90;;;3.50;;
20065;SDS011;10193;48.884;9.182;2023-02-28T06:26:59;6.27;;;3.73;;
20065;SDS011;10193;48.884;9.182;2023-02-28T06:29:29;4.03;;;3.60;;
20065;SDS011;10193;48.884;9.182;2023-02-28T06:31:56;5.33;;;3.67;;
20065;SDS011;10193;48.884;9.182;2023-02-28T06:34:23;4.53;;;3.63;;
20065;SDS011;10193;48.884;9.182;2023-02-28T06:36:50;4.43;;;3.77;;
20065;SDS011;10193;48.884;9.182;2023-02-28T06:39:17;5.23;;;3.77;;
20065;SDS011;10193;48.884;9.182;2023-02-28T06:41:45;4.40;;;4.00;;
20065;SDS011;10193;48.884;9.182;2023-02-28T06:44:14;4.03;;;3.60;;
20065;SDS011;10193;48.884;9.182;2023-02-28T06:46:43;4.27;;;3.87;;
20065;SDS011;10193;48.884;9.182;2023-02-28T06:49:11;4.90;;;3.50;;
20065;SDS011;10193;48.884;9.182;2023-02-28T06:51:38;5.23;;;3.83;;
20065;SDS011;10193;48.884;9.182;2023-02-28T06:54:07;5.87;;;3.77;;
20065;SDS011;10193;48.884;9.182;2023-02-28T06:56:34;4.37;;;3.73;;
20065;SDS011;10193;48.884;9.182;2023-02-28T06:59:01;4.37;;;3.80;;
20065;SDS011;10193;48.884;9.182;2023-02-28T07:01:29;4.37;;;3.70;;
20065;SDS011;10193;48.884;9.182;2023-02-28T07:03:56;5.10;;;4.13;;
20065;SDS011;10193;48.884;9.182;2023-02-28T07:06:25;4.50;;;3.97;;
20065;SDS011;10193;48.884;9.182;2023-02-28T07:08:52;4.33;;;3.93;;
20065;SDS011;10193;48.884;9.182;2023-02-28T07:11:19;5.10;;;4.20;;
20065;SDS011;10193;48.884;9.182;2023-02-28T07:13:47;6.57;;;3.90;;
20065;SDS011;10193;48.884;9.182;2023-02-28T07:16:14;4.40;;;4.00;;
20065;SDS011;10193;48.884;9.182;2023-02-28T07:18:42;4.93;;;4.00;;
20065;SDS011;10193;48.884;9.182;2023-02-28T07:21:09;5.00;;;4.50;;
20065;SDS011;10193;48.884;9.182;2023-02-28T07:23:37;4.30;;;3.87;;
20065;SDS011;10193;48.884;9.182;2023-02-28T07:26:04;4.97;;;3.97;;
20065;SDS011;10193;48.884;9.182;2023-02-28T07:28:31;5.10;;;4.37;;
20065;SDS011;10193;48.884;9.182;2023-02-28T07:31:02;4.40;;;4.00;;
20065;SDS011;10193;48.884;9.182;2023-02-28T07:33:30;4.70;;;4.20;;
20065;SDS011;10193;48.884;9.182;2023-02-28T07:36:01;5.63;;;4.30;;
20065;SDS011;10193;48.884;9.182;2023-02-28T07:38:28;5.10;;;4.00;;
20065;SDS011;10193;48.884;9.182;2023-02-28T07:40:54;6.23;;;4.17;;
20065;SDS011;10193;48.884;9.182;2023-02-28T07:43:21;5.67;;;4.50;;
20065;SDS011;10193;48.884;9.182;2023-02-28T07:45:48;4.50;;;4.10;;
20065;SDS011;10193;48.884;9.182;2023-02-28T07:48:15;4.63;;;4.07;;
20065;SDS011;10193;48.884;9.182;2023-02-28T07:50:41;5.07;;;4.50;;
20065;SDS011;10193;48.884;9.182;2023-02-28T07:53:10;6.30;;;4.30;;
20065;SDS011;10193;48.884;9.182;2023-02-28T07:55:36;5.70;;;4.80;;
20065;SDS011;10193;48.884;9.182;2023-02-28T07:58:03;5.03;;;4.37;;
20065;SDS011;10193;48.884;9.182;2023-02-28T08:00:30;5.57;;;4.50;;
20065;SDS011;10193;48.884;9.182;2023-02-28T08:02:57;6.23;;;4.50;;
20065;SDS011;10193;48.884;9.182;2023-02-28T08:05:24;5.77;;;4.83;;
20065;SDS011;10193;48.884;9.182;2023-02-28T08:07:51;6.27;;;4.47;;
20065;SDS011;10193;48.884;9.182;2023-02-28T08:10:19;5.10;;;4.60;;
20065;SDS011;10193;48.884;9.182;2023-02-28T08:12:46;5.70;;;4.50;;
20065;SDS011;10193;48.884;9.182;2023-02-28T08:15:12;5.60;;;4.73;;
20065;SDS011;10193;48.884;9.182;2023-02-28T08:17:39;5.27;;;4.67;;
20065;SDS011;10193;48.884;9.182;2023-02-28T08:20:06;5.30;;;4.80;;
20065;SDS011;10193;48.884;9.182;2023-02-28T08:22:35;5.70;;;5.10;;
20065;SDS011;10193;48.884;9.182;2023-02-28T08:25:02;5.67;;;5.10;;
20065;SDS011;10193;48.884;9.182;2023-02-28T08:27:30;5.27;;;4.77;;
20065;SDS011;10193;48.884;9.182;2023-02-28T08:29:57;6.97;;;4.73;;
20065;SDS011;10193;48.884;9.182;2023-02-28T08:32:23;5.70;;;4.83;;
20065;SDS011;10193;48.884;9.182;2023-02-28T08:34:50;5.60;;;5.07;;
20065;SDS011;10193;48.884;9.182;2023-02-28T08:37:17;6.97;;;5.53;;
20065;SDS011;10193;48.884;9.182;2023-02-28T08:39:44;5.80;;;5.20;;
20065;SDS011;10193;48.884;9.182;2023-02-28T08:42:10;5.50;;;4.77;;
20065;SDS011;10193;48.884;9.182;2023-02-28T08:44:38;6.23;;;4.97;;
20065;SDS011;10193;48.884;9.182;2023-02-28T08:47:05;5.60;;;4.50;;
20065;SDS011;10193;48.884;9.182;2023-02-28T08:49:32;5.43;;;4.93;;
20065;SDS011;10193;48.884;9.182;2023-02-28T08:51:59;5.27;;;4.67;;
20065;SDS011;10193;48.884;9.182;2023-02-28T08:54:25;7.10;;;5.50;;
20065;SDS011;10193;48.884;9.182;2023-02-28T08:56:55;6.00;;;5.00;;
20065;SDS011;10193;48.884;9.182;2023-02-28T08:59:22;6.50;;;5.60;;
20065;SDS011;10193;48.884;9.182;2023-02-28T09:01:50;7.53;;;6.20;;
20065;SDS011;10193;48.884;9.182;2023-02-28T09:04:17;6.37;;;5.63;;
20065;SDS011;10193;48.884;9.182;2023-02-28T09:06:43;6.73;;;5.40;;
20065;SDS011;10193;48.884;9.182;2023-02-28T09:09:10;6.43;;;5.70;;
20065;SDS011;10193;48.884;9.182;2023-02-28T09:11:37;6.47;;;5.80;;
20065;SDS011;10193;48.884;9.182;2023-02-28T09:14:04;5.90;;;5.27;;
20065;SDS011;10193;48.884;9.182;2023-02-28T09:16:31;5.87;;;5.27;;
20065;SDS011;10193;48.884;9.182;2023-02-28T09:19:00;6.63;;;5.40;;
20065;SDS011;10193;48.884;9.182;2023-02-28T09:21:27;6.10;;;5.20;;
20065;SDS011;10193;48.884;9.182;2023-02-28T09:23:54;5.47;;;4.87;;
20065;SDS011;10193;48.884;9.182;2023-02-28T09:26:22;6.27;;;5.23;;
20065;SDS011;10193;48.884;9.182;2023-02-28T09:28:49;6.80;;;5.47;;
20065;SDS011;10193;48.884;9.182;2023-02-28T09:31:18;5.80;;;5.30;;
20065;SDS011;10193;48.884;9.182;2023-02-28T09:33:46;5.93;;;5.37;;
20065;SDS011;10193;48.884;9.182;2023-02-28T09:36:15;6.70;;;5.80;;
20065;SDS011;10193;48.884;9.182;2023-02-28T09:38:42;6.00;;;5.40;;
20065;SDS011;10193;48.884;9.182;2023-02-28T09:41:11;5.67;;;5.17;;
20065;SDS011;10193;48.884;9.182;2023-02-28T09:43:40;6.33;;;5.27;;
20065;SDS011;10193;48.884;9.182;2023-02-28T09:46:12;6.17;;;5.57;;
20065;SDS011;10193;48.884;9.182;2023-02-28T09:48:46;6.40;;;5.50;;
20065;SDS011;10193;48.884;9.182;2023-02-28T09:51:22;5.47;;;4.97;;
20065;SDS011;10193;48.884;9.182;2023-02-28T09:53:53;6.30;;;5.70;;
20065;SDS011;10193;48.884;9.182;2023-02-28T09:56:21;6.60;;;5.87;;
20065;SDS011;10193;48.884;9.182;2023-02-28T09:58:53;6.17;;;5.57;;
20065;SDS011;10193;48.884;9.182;2023-02-28T10:01:24;7.77;;;5.87;;
20065;SDS011;10193;48.884;9.182;2023-02-28T10:03:56;6.10;;;5.50;;
20065;SDS011;10193;48.884;9.182;2023-02-28T10:06:28;6.77;;;5.80;;
20065;SDS011;10193;48.884;9.182;2023-02-28T10:09:00;6.13;;;5.53;;
20065;SDS011;10193;48.884;9.182;2023-02-28T10:11:29;6.07;;;5.47;;
20065;SDS011;10193;48.884;9.182;2023-02-28T10:13:59;6.30;;;5.33;;
20065;SDS011;10193;48.884;9.182;2023-02-28T10:16:31;5.90;;;5.30;;
20065;SDS011;10193;48.884;9.182;2023-02-28T10:19:02;6.33;;;5.70;;
20065;SDS011;10193;48.884;9.182;2023-02-28T10:21:34;7.90;;;6.50;;
20065;SDS011;10193;48.884;9.182;2023-02-28T10:24:04;5.90;;;5.23;;
20065;SDS011;10193;48.884;9.182;2023-02-28T10:26:39;6.33;;;5.73;;
20065;SDS011;10193;48.884;9.182;2023-02-28T10:29:09;7.33;;;5.80;;
20065;SDS011;10193;48.884;9.182;2023-02-28T10:31:36;6.23;;;5.53;;
20065;SDS011;10193;48.884;9.182;2023-02-28T10:34:04;5.97;;;5.37;;
20065;SDS011;10193;48.884;9.182;2023-02-28T10:36:32;6.03;;;5.43;;
20065;SDS011;10193;48.884;9.182;2023-02-28T10:38:59;5.80;;;5.23;;
20065;SDS011;10193;48.884;9.182;2023-02-28T10:41:27;6.43;;;5.53;;
20065;SDS011;10193;48.884;9.182;2023-02-28T10:46:40;6.50;;;5.60;;
20065;SDS011;10193;48.884;9.182;2023-02-28T10:49:12;6.40;;;5.80;;
20065;SDS011;10193;48.884;9.182;2023-02-28T10:51:42;5.90;;;5.30;;
20065;SDS011;10193;48.884;9.182;2023-02-28T10:54:15;6.00;;;5.40;;
20065;SDS011;10193;48.884;9.182;2023-02-28T10:56:44;6.23;;;5.63;;
20065;SDS011;10193;48.884;9.182;2023-02-28T10:59:26;6.67;;;5.60;;
20065;SDS011;10193;48.884;9.182;2023-02-28T11:01:55;6.10;;;5.50;;
20065;SDS011;10193;48.884;9.182;2023-02-28T11:04:32;5.90;;;5.30;;
20065;SDS011;10193;48.884;9.182;2023-02-28T11:07:03;6.60;;;5.90;;
20065;SDS011;10193;48.884;9.182;2023-02-28T11:09:33;6.27;;;5.67;;
20065;SDS011;10193;48.884;9.182;2023-02-28T11:12:01;5.90;;;5.30;;
20065;SDS011;10193;48.884;9.182;2023-02-28T11:14:30;6.13;;;5.30;;
20065;SDS011;10193;48.884;9.182;2023-02-28T11:17:00;5.97;;;5.37;;
20065;SDS011;10193;48.884;9.182;2023-02-28T11:19:38;6.10;;;5.50;;
20065;SDS011;10193;48.884;9.182;2023-02-28T11:22:11;6.07;;;5.47;;
20065;SDS011;10193;48.884;9.182;2023-02-28T11:24:45;6.73;;;5.60;;
20065;SDS011;10193;48.884;9.182;2023-02-28T11:27:24;6.10;;;5.50;;
20065;SDS011;10193;48.884;9.182;2023-02-28T11:29:52;6.33;;;5.73;;
20065;SDS011;10193;48.884;9.182;2023-02-28T11:32:20;6.00;;;5.40;;
20065;SDS011;10193;48.884;9.182;2023-02-28T11:34:59;5.93;;;5.33;;
20065;SDS011;10193;48.884;9.182;2023-02-28T11:37:31;7.43;;;5.27;;
20065;SDS011;10193;48.884;9.182;2023-02-28T11:39:59;5.60;;;5.10;;
20065;SDS011;10193;48.884;9.182;2023-02-28T11:42:29;5.80;;;5.30;;
20065;SDS011;10193;48.884;9.182;2023-02-28T11:45:11;5.73;;;5.13;;
20065;SDS011;10193;48.884;9.182;2023-02-28T11:47:48;6.00;;;5.40;;
20065;SDS011;10193;48.884;9.182;2023-02-28T11:50:28;6.17;;;5.57;;
20065;SDS011;10193;48.884;9.182;2023-02-28T11:53:10;6.33;;;5.73;;
20065;SDS011;10193;48.884;9.182;2023-02-28T11:55:46;5.95;;;5.40;;
20065;SDS011;10193;48.884;9.182;2023-02-28T11:58:22;6.83;;;5.93;;
20065;SDS011;10193;48.884;9.182;2023-02-28T12:01:03;5.95;;;5.38;;
20065;SDS011;10193;48.884;9.182;2023-02-28T12:03:45;5.80;;;5.30;;
20065;SDS011;10193;48.884;9.182;2023-02-28T12:06:21;6.15;;;5.55;;
20065;SDS011;10193;48.884;9.182;2023-02-28T12:09:02;6.40;;;5.80;;
20065;SDS011;10193;48.884;9.182;2023-02-28T12:11:40;5.85;;;5.25;;
20065;SDS011;10193;48.884;9.182;2023-02-28T12:14:34;6.07;;;5.47;;
20065;SDS011;10193;48.884;9.182;2023-02-28T12:17:19;5.90;;;5.30;;
20065;SDS011;10193;48.884;9.182;2023-02-28T12:19:57;6.20;;;5.45;;
20065;SDS011;10193;48.884;9.182;2023-02-28T12:22:31;5.45;;;4.95;;
20065;SDS011;10193;48.884;9.182;2023-02-28T12:28:06;6.60;;;5.13;;
20065;SDS011;10193;48.884;9.182;2023-02-28T12:30:35;6.10;;;5.50;;
20065;SDS011;10193;48.884;9.182;2023-02-28T12:33:07;5.72;;;5.22;;
20065;SDS011;10193;48.884;9.182;2023-02-28T12:35:41;5.30;;;4.80;;
20065;SDS011;10193;48.884;9.182;2023-02-28T12:38:14;6.00;;;5.40;;
20065;SDS011;10193;48.884;9.182;2023-02-28T12:40:47;5.33;;;4.83;;
20065;SDS011;10193;48.884;9.182;2023-02-28T12:43:17;5.57;;;5.07;;
20065;SDS011;10193;48.884;9.182;2023-02-28T12:45:46;5.50;;;5.00;;
20065;SDS011;10193;48.884;9.182;2023-02-28T12:48:18;6.00;;;5.40;;
20065;SDS011;10193;48.884;9.182;2023-02-28T12:50:50;5.70;;;5.20;;
20065;SDS011;10193;48.884;9.182;2023-02-28T12:53:18;6.07;;;5.47;;
20065;SDS011;10193;48.884;9.182;2023-02-28T12:55:54;6.20;;;5.60;;
20065;SDS011;10193;48.884;9.182;2023-02-28T12:58:29;6.47;;;5.87;;
20065;SDS011;10193;48.884;9.182;2023-02-28T13:01:22;6.40;;;5.70;;
20065;SDS011;10193;48.884;9.182;2023-02-28T13:04:05;6.10;;;5.50;;
20065;SDS011;10193;48.884;9.182;2023-02-28T13:06:52;5.85;;;5.32;;
20065;SDS011;10193;48.884;9.182;2023-02-28T13:09:32;6.97;;;5.90;;
20065;SDS011;10193;48.884;9.182;2023-02-28T13:12:00;7.03;;;5.80;;
20065;SDS011;10193;48.884;9.182;2023-02-28T13:14:28;6.00;;;5.40;;
20065;SDS011;10193;48.884;9.182;2023-02-28T13:16:57;5.68;;;5.18;;
20065;SDS011;10193;48.884;9.182;2023-02-28T13:19:28;6.45;;;5.85;;
20065;SDS011;10193;48.884;9.182;2023-02-28T13:21:58;7.80;;;5.75;;
20065;SDS011;10193;48.884;9.182;2023-02-28T13:24:37;5.50;;;5.00;;
20065;SDS011;10193;48.884;9.182;2023-02-28T13:27:23;5.65;;;5.15;;
20065;SDS011;10193;48.884;9.182;2023-02-28T13:33:23;6.47;;;5.32;;
20065;SDS011;10193;48.884;9.182;2023-02-28T13:36:22;6.55;;;5.70;;
20065;SDS011;10193;48.884;9.182;2023-02-28T13:38:51;5.95;;;5.45;;
20065;SDS011;10193;48.884;9.182;2023-02-28T13:44:10;6.07;;;5.47;;
20065;SDS011;10193;48.884;9.182;2023-02-28T13:49:38;6.35;;;5.75;;
20065;SDS011;10193;48.884;9.182;2023-02-28T13:52:07;6.45;;;5.53;;
20065;SDS011;10193;48.884;9.182;2023-02-28T13:54:44;5.95;;;5.45;;
20065;SDS011;10193;48.884;9.182;2023-02-28T13:57:41;6.10;;;5.50;;
20065;SDS011;10193;48.884;9.182;2023-02-28T14:00:17;5.97;;;5.38;;
20065;SDS011;10193;48.884;9.182;2023-02-28T14:03:00;6.00;;;5.40;;
20065;SDS011;10193;48.884;9.182;2023-02-28T14:05:47;7.03;;;5.40;;
20065;SDS011;10193;48.884;9.182;2023-02-28T14:08:36;5.95;;;5.35;;
20065;SDS011;10193;48.884;9.182;2023-02-28T14:11:03;6.10;;;5.50;;
20065;SDS011;10193;48.884;9.182;2023-02-28T14:13:37;6.13;;;5.53;;
20065;SDS011;10193;48.884;9.182;2023-02-28T14:16:10;7.30;;;6.00;;
20065;SDS011;10193;48.884;9.182;2023-02-28T14:18:41;6.23;;;5.60;;
20065;SDS011;10193;48.884;9.182;2023-02-28T14:21:16;6.20;;;5.60;;
20065;SDS011;10193;48.884;9.182;2023-02-28T14:23:55;6.18;;;5.68;;
20065;SDS011;10193;48.884;9.182;2023-02-28T14:27:00;6.13;;;5.53;;
20065;SDS011;10193;48.884;9.182;2023-02-28T14:29:43;5.65;;;5.15;;
20065;SDS011;10193;48.884;9.182;2023-02-28T14:32:43;5.57;;;5.07;;
20065;SDS011;10193;48.884;9.182;2023-02-28T14:35:35;6.22;;;5.63;;
20065;SDS011;10193;48.884;9.182;2023-02-28T14:38:17;5.63;;;5.13;;
20065;SDS011;10193;48.884;9.182;2023-02-28T14:40:46;5.80;;;5.20;;
20065;SDS011;10193;48.884;9.182;2023-02-28T14:43:19;6.05;;;5.40;;
20065;SDS011;10193;48.884;9.182;2023-02-28T14:45:49;5.85;;;5.28;;
20065;SDS011;10193;48.884;9.182;2023-02-28T14:48:18;5.95;;;5.35;;
20065;SDS011;10193;48.884;9.182;2023-02-28T14:50:48;5.82;;;5.20;;
20065;SDS011;10193;48.884;9.182;2023-02-28T14:53:17;5.90;;;5.40;;
20065;SDS011;10193;48.884;9.182;2023-02-28T14:55:46;5.63;;;5.13;;
20065;SDS011;10193;48.884;9.182;2023-02-28T14:58:20;5.70;;;5.20;;
20065;SDS011;10193;48.884;9.182;2023-02-28T15:00:50;6.20;;;5.60;;
20065;SDS011;10193;48.884;9.182;2023-02-28T15:03:21;6.38;;;5.78;;
20065;SDS011;10193;48.884;9.182;2023-02-28T15:05:53;6.18;;;5.63;;
20065;SDS011;10193;48.884;9.182;2023-02-28T15:08:21;5.68;;;4.90;;
20065;SDS011;10193;48.884;9.182;2023-02-28T15:10:52;6.35;;;5.75;;
20065;SDS011;10193;48.884;9.182;2023-02-28T15:13:21;6.28;;;5.57;;
20065;SDS011;10193;48.884;9.182;2023-02-28T15:15:50;6.40;;;5.80;;
20065;SDS011;10193;48.884;9.182;2023-02-28T15:18:25;6.30;;;5.70;;
20065;SDS011;10193;48.884;9.182;2023-02-28T15:20:57;7.20;;;6.00;;
20065;SDS011;10193;48.884;9.182;2023-02-28T15:23:28;7.27;;;6.10;;
20065;SDS011;10193;48.884;9.182;2023-02-28T15:25:55;6.55;;;5.95;;
20065;SDS011;10193;48.884;9.182;2023-02-28T15:28:22;6.13;;;5.53;;
20065;SDS011;10193;48.884;9.182;2023-02-28T15:30:51;5.83;;;5.20;;
20065;SDS011;10193;48.884;9.182;2023-02-28T15:33:20;7.00;;;6.30;;